Time;durP1;ratioP1;P1;durP2;ratioP2;P2;SDS_P1;SDS_P2;PMS_P1;PMS_P2;Temp;Humidity;BMP_temperature;BMP_pressure;BME280_temperature;BME280_humidity;BME280_pressure;Samples;Min_cycle;Max_cycle;Signal;HPM_P1;HPM_P2
2023/05/06 00:01:51;;;;;;;23.87;17.40;;;;;;;;;;5064529;28;20481;-79
2023/05/06 00:04:17;;;;;;;22.77;18.03;;;;;;;;;;5072500;28;20453;-80
2023/05/06 00:06:44;;;;;;;22.83;15.77;;;;;;;;;;5067019;28;20499;-79
2023/05/06 00:09:10;;;;;;;26.63;18.07;;;;;;;;;;5060119;28;20504;-81
2023/05/06 00:11:37;;;;;;;25.70;17.10;;;;;;;;;;5063276;28;20484;-81
2023/05/06 00:14:05;;;;;;;24.50;18.20;;;;;;;;;;5062608;28;20445;-81
2023/05/06 00:16:31;;;;;;;25.47;17.90;;;;;;;;;;5062323;28;20511;-81
2023/05/06 00:18:57;;;;;;;24.20;17.60;;;;;;;;;;5062099;28;20481;-82
2023/05/06 00:21:24;;;;;;;24.80;17.90;;;;;;;;;;5071712;28;21011;-81
2023/05/06 00:23:50;;;;;;;29.20;19.23;;;;;;;;;;5063192;28;20455;-80
2023/05/06 00:26:20;;;;;;;31.27;18.20;;;;;;;;;;5066734;28;20477;-80
2023/05/06 00:28:46;;;;;;;24.93;17.90;;;;;;;;;;5070397;28;20463;-80
2023/05/06 00:31:14;;;;;;;29.10;19.27;;;;;;;;;;5063073;28;20504;-80
2023/05/06 00:33:41;;;;;;;28.67;19.50;;;;;;;;;;5064808;28;20452;-80
2023/05/06 00:36:07;;;;;;;33.10;20.03;;;;;;;;;;5063703;28;20484;-80
2023/05/06 00:38:34;;;;;;;29.43;20.07;;;;;;;;;;5064016;28;20480;-81
2023/05/06 00:41:02;;;;;;;27.77;19.17;;;;;;;;;;5063382;28;21083;-80
2023/05/06 00:43:28;;;;;;;23.00;17.00;;;;;;;;;;5065196;28;20507;-79
2023/05/06 00:45:55;;;;;;;26.17;17.87;;;;;;;;;;5063259;28;21023;-80
2023/05/06 00:48:22;;;;;;;27.53;18.90;;;;;;;;;;5075250;28;20494;-81
2023/05/06 00:50:49;;;;;;;23.97;18.27;;;;;;;;;;5064266;28;20480;-79
2023/05/06 00:53:18;;;;;;;27.97;19.27;;;;;;;;;;5065521;28;20513;-80
2023/05/06 00:55:45;;;;;;;26.70;19.03;;;;;;;;;;5073180;28;20472;-80
2023/05/06 00:58:12;;;;;;;25.80;18.33;;;;;;;;;;5070633;28;20482;-81
2023/05/06 01:00:39;;;;;;;28.13;19.23;;;;;;;;;;5063181;28;20480;-81
2023/05/06 01:03:05;;;;;;;26.60;18.40;;;;;;;;;;5063905;28;20475;-80
2023/05/06 01:05:35;;;;;;;27.00;17.67;;;;;;;;;;5062766;28;20493;-80
2023/05/06 01:08:06;;;;;;;26.67;18.30;;;;;;;;;;5063337;28;20492;-80
2023/05/06 01:10:35;;;;;;;28.33;18.63;;;;;;;;;;5072125;28;20476;-80
2023/05/06 01:13:04;;;;;;;25.00;17.70;;;;;;;;;;5070600;28;21000;-81
2023/05/06 01:15:33;;;;;;;30.50;18.80;;;;;;;;;;5062755;28;21044;-81
2023/05/06 01:18:01;;;;;;;26.40;17.93;;;;;;;;;;5070102;28;20486;-81
2023/05/06 01:20:29;;;;;;;26.40;17.83;;;;;;;;;;5069746;28;21173;-80
2023/05/06 01:22:57;;;;;;;24.30;17.97;;;;;;;;;;5068757;28;20949;-80
2023/05/06 01:25:25;;;;;;;27.50;17.53;;;;;;;;;;5062685;28;20464;-80
2023/05/06 01:27:51;;;;;;;26.00;17.90;;;;;;;;;;5070974;28;20460;-81
2023/05/06 01:30:19;;;;;;;31.90;21.50;;;;;;;;;;5072184;28;20519;-81
2023/05/06 01:32:50;;;;;;;30.10;20.20;;;;;;;;;;5069954;28;20535;-82
2023/05/06 01:35:20;;;;;;;28.57;18.53;;;;;;;;;;5062785;28;20885;-82
2023/05/06 01:37:48;;;;;;;27.13;18.93;;;;;;;;;;5060571;28;20477;-82
2023/05/06 01:40:16;;;;;;;27.00;19.00;;;;;;;;;;5060261;28;20450;-82
2023/05/06 01:42:47;;;;;;;31.40;18.43;;;;;;;;;;5063986;28;20580;-81
2023/05/06 01:45:15;;;;;;;29.33;20.37;;;;;;;;;;5065648;28;20491;-82
2023/05/06 01:47:41;;;;;;;23.47;17.47;;;;;;;;;;5063012;28;20879;-81
2023/05/06 01:50:08;;;;;;;28.60;18.07;;;;;;;;;;5066780;28;20663;-82
2023/05/06 01:52:35;;;;;;;30.20;19.57;;;;;;;;;;5064248;28;20472;-82
2023/05/06 01:55:01;;;;;;;29.57;18.37;;;;;;;;;;5062717;28;20453;-82
2023/05/06 01:57:28;;;;;;;30.37;18.03;;;;;;;;;;5068849;28;20481;-82
2023/05/06 01:59:56;;;;;;;25.27;17.00;;;;;;;;;;5063233;28;20471;-82
2023/05/06 02:02:22;;;;;;;24.20;16.23;;;;;;;;;;5062098;28;20496;-82
2023/05/06 02:04:49;;;;;;;24.97;17.83;;;;;;;;;;5063277;28;20449;-82
2023/05/06 02:07:16;;;;;;;25.97;17.60;;;;;;;;;;5062040;28;21012;-82
2023/05/06 02:09:42;;;;;;;23.37;16.73;;;;;;;;;;5064904;28;20868;-81
2023/05/06 02:12:08;;;;;;;26.07;17.80;;;;;;;;;;5065879;28;20504;-81
2023/05/06 02:14:35;;;;;;;32.30;18.93;;;;;;;;;;5051456;28;20452;-81
2023/05/06 02:17:04;;;;;;;29.27;19.20;;;;;;;;;;5068144;28;20481;-81
2023/05/06 02:19:31;;;;;;;25.33;17.53;;;;;;;;;;5062952;28;20481;-81
2023/05/06 02:21:57;;;;;;;30.67;19.17;;;;;;;;;;5061442;28;21314;-82
2023/05/06 02:24:25;;;;;;;30.40;18.53;;;;;;;;;;5062614;28;20513;-81
2023/05/06 02:26:51;;;;;;;28.03;18.10;;;;;;;;;;5062863;28;20475;-81
2023/05/06 02:29:17;;;;;;;26.73;17.73;;;;;;;;;;5062675;28;20460;-81
2023/05/06 02:31:44;;;;;;;139.27;22.03;;;;;;;;;;5061346;28;20496;-81
2023/05/06 02:34:12;;;;;;;363.97;29.50;;;;;;;;;;5068213;28;20493;-81
2023/05/06 02:36:38;;;;;;;401.73;33.17;;;;;;;;;;5066218;28;20512;-81
2023/05/06 02:39:04;;;;;;;144.67;23.90;;;;;;;;;;5066884;28;20460;-82
2023/05/06 02:41:31;;;;;;;154.93;18.87;;;;;;;;;;5062484;28;20573;-81
2023/05/06 02:43:57;;;;;;;53.00;18.63;;;;;;;;;;5066448;28;20477;-81
2023/05/06 02:46:24;;;;;;;136.60;18.83;;;;;;;;;;5063626;28;20551;-81
2023/05/06 02:48:50;;;;;;;39.23;18.47;;;;;;;;;;5068873;28;20960;-82
2023/05/06 02:51:18;;;;;;;54.03;18.37;;;;;;;;;;5064963;28;20539;-81
2023/05/06 02:53:44;;;;;;;44.47;17.50;;;;;;;;;;5077573;28;20483;-81
2023/05/06 02:56:11;;;;;;;52.17;15.97;;;;;;;;;;5058235;28;20480;-81
2023/05/06 02:58:37;;;;;;;28.60;15.10;;;;;;;;;;5067929;28;20884;-81
2023/05/06 03:01:03;;;;;;;27.63;16.20;;;;;;;;;;5078588;28;20551;-81
2023/05/06 03:03:30;;;;;;;25.90;17.40;;;;;;;;;;5069027;28;20485;-81
2023/05/06 03:05:56;;;;;;;40.87;14.70;;;;;;;;;;5077481;28;20475;-82
2023/05/06 03:08:24;;;;;;;40.23;15.17;;;;;;;;;;5059208;28;20500;-81
2023/05/06 03:10:51;;;;;;;22.43;14.93;;;;;;;;;;5065563;28;20476;-81
2023/05/06 03:13:17;;;;;;;18.73;13.87;;;;;;;;;;5065981;28;20848;-80
2023/05/06 03:15:44;;;;;;;21.20;13.97;;;;;;;;;;5065468;28;20493;-80
2023/05/06 03:18:10;;;;;;;20.73;14.20;;;;;;;;;;5070512;28;20487;-80
2023/05/06 03:20:37;;;;;;;29.90;13.90;;;;;;;;;;5072933;28;20559;-80
2023/05/06 03:23:03;;;;;;;24.23;14.10;;;;;;;;;;5065786;28;20580;-80
2023/05/06 03:25:31;;;;;;;17.60;13.60;;;;;;;;;;5069086;28;20901;-80
2023/05/06 03:27:57;;;;;;;29.33;14.83;;;;;;;;;;5066219;28;20457;-80
2023/05/06 03:30:24;;;;;;;23.13;14.27;;;;;;;;;;5049139;28;20490;-80
2023/05/06 03:32:50;;;;;;;22.43;14.40;;;;;;;;;;5066437;28;20452;-80
2023/05/06 03:35:16;;;;;;;18.03;13.87;;;;;;;;;;5066592;28;20444;-80
2023/05/06 03:37:43;;;;;;;15.87;12.00;;;;;;;;;;5065372;28;20472;-80
2023/05/06 03:40:09;;;;;;;16.00;13.40;;;;;;;;;;5064809;28;20467;-81
2023/05/06 03:42:37;;;;;;;18.03;14.60;;;;;;;;;;5065251;28;20511;-81
2023/05/06 03:45:05;;;;;;;17.50;13.33;;;;;;;;;;5060261;28;20521;-81
2023/05/06 03:47:31;;;;;;;20.57;13.17;;;;;;;;;;5065719;28;20528;-81
2023/05/06 03:49:59;;;;;;;17.90;13.37;;;;;;;;;;5067014;28;20484;-81
2023/05/06 03:52:25;;;;;;;29.13;13.17;;;;;;;;;;5064397;28;20488;-81
2023/05/06 03:54:52;;;;;;;20.10;14.93;;;;;;;;;;5062427;28;20537;-80
2023/05/06 03:57:18;;;;;;;16.63;13.03;;;;;;;;;;5068408;28;20497;-81
2023/05/06 03:59:46;;;;;;;18.23;13.00;;;;;;;;;;5065273;28;20491;-80
2023/05/06 04:02:12;;;;;;;21.73;13.50;;;;;;;;;;5064956;28;20576;-81
2023/05/06 04:04:39;;;;;;;18.77;13.10;;;;;;;;;;5074134;28;20487;-80
2023/05/06 04:07:05;;;;;;;15.43;11.60;;;;;;;;;;5070121;28;20515;-81
2023/05/06 04:09:31;;;;;;;19.10;13.93;;;;;;;;;;5079908;28;20452;-81
2023/05/06 04:11:58;;;;;;;14.47;11.80;;;;;;;;;;5065383;28;20507;-81
2023/05/06 04:14:24;;;;;;;15.63;11.83;;;;;;;;;;5065893;28;20475;-81
2023/05/06 04:16:52;;;;;;;16.10;12.20;;;;;;;;;;5063677;28;20556;-81
2023/05/06 04:19:19;;;;;;;18.30;12.90;;;;;;;;;;5073220;28;20461;-81
2023/05/06 04:21:45;;;;;;;16.50;12.37;;;;;;;;;;5063612;28;20481;-82
2023/05/06 04:24:12;;;;;;;37.17;15.40;;;;;;;;;;5064447;28;20535;-81
2023/05/06 04:26:39;;;;;;;33.17;15.23;;;;;;;;;;5063569;28;20484;-80
2023/05/06 04:29:05;;;;;;;24.77;13.60;;;;;;;;;;5064499;28;20969;-80
2023/05/06 04:31:33;;;;;;;21.07;13.93;;;;;;;;;;5064869;28;20476;-80
2023/05/06 04:34:01;;;;;;;31.63;15.57;;;;;;;;;;5072633;28;20452;-82
2023/05/06 04:36:28;;;;;;;52.23;17.27;;;;;;;;;;5064507;28;20479;-82
2023/05/06 04:38:54;;;;;;;42.30;15.93;;;;;;;;;;5063801;28;20518;-80
2023/05/06 04:41:21;;;;;;;47.43;15.03;;;;;;;;;;5063085;28;20493;-80
2023/05/06 04:43:47;;;;;;;100.07;16.20;;;;;;;;;;5063773;28;20512;-80
2023/05/06 04:46:14;;;;;;;20.13;13.07;;;;;;;;;;5063621;28;20544;-79
2023/05/06 04:48:41;;;;;;;42.53;16.30;;;;;;;;;;5067318;28;20445;-82
2023/05/06 04:51:09;;;;;;;35.53;15.30;;;;;;;;;;5071724;28;20500;-80
2023/05/06 04:53:35;;;;;;;213.83;22.77;;;;;;;;;;5063331;28;20452;-80
2023/05/06 04:56:02;;;;;;;102.30;21.87;;;;;;;;;;5063336;28;20567;-80
2023/05/06 04:58:28;;;;;;;28.00;15.07;;;;;;;;;;5065720;28;20524;-81
2023/05/06 05:00:56;;;;;;;26.57;15.47;;;;;;;;;;5063251;28;20473;-81
2023/05/06 05:03:22;;;;;;;26.93;16.87;;;;;;;;;;5066258;28;20517;-81
2023/05/06 05:05:48;;;;;;;23.10;15.80;;;;;;;;;;5062900;28;20488;-81
2023/05/06 05:08:16;;;;;;;27.07;16.50;;;;;;;;;;5067511;28;20526;-81
2023/05/06 05:10:43;;;;;;;26.00;16.60;;;;;;;;;;5061145;28;20528;-81
2023/05/06 05:13:09;;;;;;;26.73;16.40;;;;;;;;;;5065456;28;20538;-80
2023/05/06 05:15:37;;;;;;;36.27;17.77;;;;;;;;;;5062541;28;20483;-82
2023/05/06 05:18:03;;;;;;;27.07;17.50;;;;;;;;;;5063445;28;20522;-81
2023/05/06 05:20:30;;;;;;;28.00;16.60;;;;;;;;;;5067708;28;20484;-81
2023/05/06 05:22:56;;;;;;;49.27;17.87;;;;;;;;;;5065240;28;20528;-81
2023/05/06 05:25:24;;;;;;;28.90;18.93;;;;;;;;;;5062980;28;20452;-81
2023/05/06 05:27:51;;;;;;;29.20;18.90;;;;;;;;;;5063483;28;20461;-80
2023/05/06 05:30:17;;;;;;;29.50;18.27;;;;;;;;;;5066092;28;20453;-80
2023/05/06 05:32:44;;;;;;;28.77;17.70;;;;;;;;;;5062679;28;20489;-80
2023/05/06 05:35:10;;;;;;;29.83;19.43;;;;;;;;;;5075333;28;20471;-79
2023/05/06 05:37:37;;;;;;;28.70;19.37;;;;;;;;;;5068358;28;20445;-79
2023/05/06 05:40:04;;;;;;;25.60;17.43;;;;;;;;;;5064102;28;20453;-81
2023/05/06 05:42:32;;;;;;;28.20;18.87;;;;;;;;;;5071864;28;20473;-79
2023/05/06 05:44:58;;;;;;;25.47;17.53;;;;;;;;;;5065476;28;20454;-79
2023/05/06 05:47:25;;;;;;;27.30;17.90;;;;;;;;;;5066971;28;20583;-79
2023/05/06 05:49:51;;;;;;;29.17;18.67;;;;;;;;;;5070461;28;20925;-79
2023/05/06 05:52:18;;;;;;;51.50;20.63;;;;;;;;;;5065713;28;20481;-79
2023/05/06 05:54:44;;;;;;;38.23;18.00;;;;;;;;;;5070237;28;20464;-79
2023/05/06 05:57:11;;;;;;;24.90;17.60;;;;;;;;;;5062240;28;20472;-79
2023/05/06 05:59:39;;;;;;;26.57;18.17;;;;;;;;;;5062896;28;20550;-79
2023/05/06 06:02:06;;;;;;;25.20;17.03;;;;;;;;;;5061197;28;20504;-79
2023/05/06 06:04:32;;;;;;;45.63;19.17;;;;;;;;;;5074980;28;20467;-79
2023/05/06 06:07:00;;;;;;;26.43;18.73;;;;;;;;;;5063085;28;20487;-78
2023/05/06 06:09:27;;;;;;;30.10;18.80;;;;;;;;;;5043126;28;20490;-78
2023/05/06 06:11:53;;;;;;;28.17;18.83;;;;;;;;;;5048106;28;20476;-78
2023/05/06 06:14:20;;;;;;;25.70;17.90;;;;;;;;;;5051947;28;20454;-78
2023/05/06 06:16:48;;;;;;;30.10;18.07;;;;;;;;;;5043270;28;20481;-79
2023/05/06 06:19:14;;;;;;;25.37;17.87;;;;;;;;;;5045027;28;20511;-77
2023/05/06 06:21:41;;;;;;;25.13;18.03;;;;;;;;;;5031939;28;20477;-78
2023/05/06 06:24:07;;;;;;;23.70;17.13;;;;;;;;;;5037584;28;20514;-79
2023/05/06 06:26:34;;;;;;;26.43;18.03;;;;;;;;;;5037503;28;20474;-80
2023/05/06 06:29:00;;;;;;;23.90;17.50;;;;;;;;;;5039985;28;20513;-80
2023/05/06 06:31:28;;;;;;;22.70;17.43;;;;;;;;;;5038362;28;20478;-79
2023/05/06 06:33:55;;;;;;;24.83;18.00;;;;;;;;;;5039501;28;20465;-79
2023/05/06 06:36:22;;;;;;;21.90;16.20;;;;;;;;;;5041808;28;21044;-79
2023/05/06 06:38:48;;;;;;;21.47;16.10;;;;;;;;;;5039723;28;20457;-80
2023/05/06 06:41:15;;;;;;;19.27;15.90;;;;;;;;;;5039364;28;20585;-78
2023/05/06 06:43:41;;;;;;;18.87;16.23;;;;;;;;;;5042115;28;20492;-80
2023/05/06 06:46:08;;;;;;;21.67;16.60;;;;;;;;;;5037150;28;20602;-79
2023/05/06 06:48:34;;;;;;;20.50;15.60;;;;;;;;;;5037765;28;20497;-80
2023/05/06 06:51:02;;;;;;;19.90;15.10;;;;;;;;;;5044391;28;20500;-80
2023/05/06 06:53:29;;;;;;;20.57;14.60;;;;;;;;;;5041366;28;20453;-80
2023/05/06 06:55:55;;;;;;;20.10;16.37;;;;;;;;;;5039385;28;20564;-80
2023/05/06 06:58:22;;;;;;;20.23;15.53;;;;;;;;;;5041898;28;20458;-80
2023/05/06 07:00:48;;;;;;;19.27;15.40;;;;;;;;;;5041870;28;20499;-80
2023/05/06 07:03:18;;;;;;;19.07;15.30;;;;;;;;;;5041712;28;20494;-80
2023/05/06 07:05:44;;;;;;;18.93;14.17;;;;;;;;;;5041859;28;20493;-80
2023/05/06 07:08:12;;;;;;;18.03;15.30;;;;;;;;;;5050824;28;20576;-79
2023/05/06 07:10:39;;;;;;;16.20;14.10;;;;;;;;;;5060695;28;20517;-80
2023/05/06 07:13:05;;;;;;;16.83;14.73;;;;;;;;;;5067906;28;20492;-79
2023/05/06 07:15:32;;;;;;;21.30;16.13;;;;;;;;;;5068266;28;20483;-78
2023/05/06 07:17:58;;;;;;;17.47;14.53;;;;;;;;;;5072545;28;20441;-78
2023/05/06 07:20:24;;;;;;;17.33;14.83;;;;;;;;;;5070452;28;20476;-78
2023/05/06 07:22:51;;;;;;;20.10;14.93;;;;;;;;;;5066739;28;20492;-78
2023/05/06 07:25:19;;;;;;;19.00;14.67;;;;;;;;;;5066625;28;20447;-78
2023/05/06 07:27:45;;;;;;;16.30;13.37;;;;;;;;;;5068614;28;20457;-78
2023/05/06 07:30:12;;;;;;;16.50;14.80;;;;;;;;;;5062169;28;20463;-79
2023/05/06 07:32:39;;;;;;;15.13;13.53;;;;;;;;;;5067848;28;21061;-80
2023/05/06 07:35:06;;;;;;;16.17;12.63;;;;;;;;;;5076741;28;20452;-78
2023/05/06 07:37:33;;;;;;;14.90;13.30;;;;;;;;;;5072035;28;20484;-78
2023/05/06 07:39:59;;;;;;;16.80;13.67;;;;;;;;;;5072455;28;20465;-79
2023/05/06 07:42:27;;;;;;;14.83;13.23;;;;;;;;;;5063943;28;21006;-78
2023/05/06 07:44:53;;;;;;;16.07;13.60;;;;;;;;;;5069795;28;20457;-78
2023/05/06 07:47:26;;;;;;;13.73;12.27;;;;;;;;;;5066604;28;20485;-78
2023/05/06 07:49:52;;;;;;;17.03;14.77;;;;;;;;;;5069775;28;20463;-80
2023/05/06 07:52:18;;;;;;;14.50;12.97;;;;;;;;;;5067188;28;20485;-78
2023/05/06 07:54:45;;;;;;;16.00;13.30;;;;;;;;;;5063976;28;20469;-79
2023/05/06 07:57:11;;;;;;;14.13;12.40;;;;;;;;;;5063624;28;20500;-79
2023/05/06 07:59:39;;;;;;;12.53;11.23;;;;;;;;;;5064416;28;20511;-78
2023/05/06 08:02:06;;;;;;;12.40;11.20;;;;;;;;;;5054379;28;20488;-79
2023/05/06 08:04:33;;;;;;;13.00;11.63;;;;;;;;;;5068670;28;20496;-77
2023/05/06 08:06:59;;;;;;;12.93;11.37;;;;;;;;;;5068340;28;20484;-77
2023/05/06 08:09:26;;;;;;;13.40;12.00;;;;;;;;;;5046044;28;20462;-78
2023/05/06 08:11:53;;;;;;;11.07;9.97;;;;;;;;;;5047827;28;20488;-78
2023/05/06 08:14:19;;;;;;;12.10;10.90;;;;;;;;;;5043491;28;20441;-80
2023/05/06 08:16:47;;;;;;;12.17;11.00;;;;;;;;;;5043357;28;20613;-79
2023/05/06 08:19:13;;;;;;;13.07;11.43;;;;;;;;;;5046908;28;20471;-79
2023/05/06 08:21:40;;;;;;;12.50;11.20;;;;;;;;;;5043020;28;21234;-79
2023/05/06 08:24:07;;;;;;;13.43;11.40;;;;;;;;;;5046403;28;20498;-80
2023/05/06 08:26:33;;;;;;;12.40;11.10;;;;;;;;;;5050303;28;20472;-79
2023/05/06 08:29:01;;;;;;;12.60;10.97;;;;;;;;;;5044498;28;20466;-81
2023/05/06 08:31:28;;;;;;;13.53;12.13;;;;;;;;;;5039667;28;20485;-76
2023/05/06 08:33:56;;;;;;;13.27;11.97;;;;;;;;;;5045926;28;20485;-78
2023/05/06 08:36:22;;;;;;;11.27;10.17;;;;;;;;;;5048486;28;20472;-77
2023/05/06 08:38:50;;;;;;;13.73;11.63;;;;;;;;;;5048929;28;20457;-77
2023/05/06 08:41:17;;;;;;;13.50;10.40;;;;;;;;;;5048435;28;20476;-79
2023/05/06 08:43:45;;;;;;;11.93;10.70;;;;;;;;;;5052562;28;20489;-79
2023/05/06 08:46:12;;;;;;;11.80;10.63;;;;;;;;;;5052749;28;20497;-80
2023/05/06 08:48:39;;;;;;;11.57;10.47;;;;;;;;;;5059108;28;20468;-80
2023/05/06 08:51:07;;;;;;;11.67;10.57;;;;;;;;;;5046087;28;20491;-78
2023/05/06 08:53:34;;;;;;;10.87;9.87;;;;;;;;;;5043893;28;20478;-78
2023/05/06 08:56:02;;;;;;;11.90;10.70;;;;;;;;;;5042987;28;20478;-78
2023/05/06 08:58:30;;;;;;;10.90;9.80;;;;;;;;;;5045026;28;20588;-78
2023/05/06 09:00:57;;;;;;;11.60;10.40;;;;;;;;;;5045669;28;20509;-78
2023/05/06 09:03:24;;;;;;;12.10;10.53;;;;;;;;;;5045289;28;21105;-79
2023/05/06 09:05:50;;;;;;;12.37;9.70;;;;;;;;;;5049617;28;20489;-80
2023/05/06 09:08:18;;;;;;;9.90;8.90;;;;;;;;;;5061717;28;20493;-81
2023/05/06 09:10:45;;;;;;;9.73;8.50;;;;;;;;;;5066696;28;20487;-80
2023/05/06 09:13:12;;;;;;;10.97;9.90;;;;;;;;;;5069151;28;20451;-79
2023/05/06 09:15:43;;;;;;;10.60;9.50;;;;;;;;;;5061156;28;20468;-78
2023/05/06 09:18:10;;;;;;;10.10;9.03;;;;;;;;;;5064010;28;20479;-80
2023/05/06 09:20:40;;;;;;;10.20;9.10;;;;;;;;;;5067503;28;20488;-80
2023/05/06 09:23:08;;;;;;;10.00;8.67;;;;;;;;;;5063857;28;20496;-79
2023/05/06 09:25:36;;;;;;;8.60;7.80;;;;;;;;;;5062451;28;20476;-79
2023/05/06 09:28:05;;;;;;;8.43;7.63;;;;;;;;;;5062723;28;20467;-79
2023/05/06 09:30:32;;;;;;;9.07;8.20;;;;;;;;;;5056692;28;20509;-78
2023/05/06 09:32:58;;;;;;;9.40;8.40;;;;;;;;;;5061287;28;20493;-79
2023/05/06 09:35:27;;;;;;;8.67;7.87;;;;;;;;;;5062621;28;20453;-79
2023/05/06 09:37:53;;;;;;;8.00;7.20;;;;;;;;;;5060011;28;20450;-78
2023/05/06 09:40:20;;;;;;;7.23;6.57;;;;;;;;;;5066418;28;20474;-78
2023/05/06 09:42:50;;;;;;;8.27;7.47;;;;;;;;;;5061928;28;20503;-78
2023/05/06 09:45:17;;;;;;;8.10;7.30;;;;;;;;;;5063819;28;20461;-79
2023/05/06 09:47:43;;;;;;;7.67;7.03;;;;;;;;;;5065760;28;20450;-79
2023/05/06 09:50:10;;;;;;;6.97;6.37;;;;;;;;;;5066914;28;20464;-80
2023/05/06 09:52:36;;;;;;;8.00;6.53;;;;;;;;;;5066147;28;20453;-78
2023/05/06 09:55:03;;;;;;;8.20;7.33;;;;;;;;;;5061760;28;20608;-78
2023/05/06 09:57:30;;;;;;;6.97;6.27;;;;;;;;;;5072437;28;20471;-78
2023/05/06 09:59:59;;;;;;;6.53;5.93;;;;;;;;;;5060711;28;20523;-77
2023/05/06 10:02:26;;;;;;;7.93;6.50;;;;;;;;;;5067757;28;20526;-78
2023/05/06 10:04:54;;;;;;;7.87;7.07;;;;;;;;;;5069197;28;20441;-79
2023/05/06 10:07:22;;;;;;;7.17;6.47;;;;;;;;;;5061166;28;20548;-77
2023/05/06 10:09:49;;;;;;;7.60;6.67;;;;;;;;;;5063388;28;21081;-80
2023/05/06 10:12:16;;;;;;;5.70;5.20;;;;;;;;;;5063753;28;20483;-80
2023/05/06 10:14:42;;;;;;;6.03;5.43;;;;;;;;;;5060468;28;20480;-77
2023/05/06 10:17:12;;;;;;;9.73;6.30;;;;;;;;;;5064184;28;20487;-77
2023/05/06 10:19:39;;;;;;;7.20;6.50;;;;;;;;;;5063777;28;20465;-78
2023/05/06 10:22:09;;;;;;;6.30;5.20;;;;;;;;;;5063620;28;20484;-78
2023/05/06 10:24:39;;;;;;;6.33;5.73;;;;;;;;;;5068903;28;20440;-78
2023/05/06 10:27:06;;;;;;;5.60;4.63;;;;;;;;;;5072270;28;20532;-79
2023/05/06 10:29:35;;;;;;;5.93;5.00;;;;;;;;;;5067543;28;20478;-77
2023/05/06 10:32:02;;;;;;;6.50;4.60;;;;;;;;;;5060028;28;20499;-78
2023/05/06 10:34:33;;;;;;;6.50;5.77;;;;;;;;;;5073248;28;20488;-77
2023/05/06 10:37:00;;;;;;;5.47;4.97;;;;;;;;;;5065510;28;20544;-77
2023/05/06 10:39:26;;;;;;;6.70;6.03;;;;;;;;;;5062983;28;20469;-78
2023/05/06 10:41:53;;;;;;;4.97;4.47;;;;;;;;;;5061844;28;20469;-79
2023/05/06 10:44:48;;;;;;;5.83;4.80;;;;;;;;;;5061443;28;20830;-77
2023/05/06 10:47:14;;;;;;;4.27;3.87;;;;;;;;;;5057625;28;20485;-78
2023/05/06 10:49:43;;;;;;;5.80;5.13;;;;;;;;;;5058221;28;20458;-77
2023/05/06 10:52:11;;;;;;;5.93;5.13;;;;;;;;;;5058433;28;20544;-76
2023/05/06 10:54:47;;;;;;;5.60;4.57;;;;;;;;;;5072181;28;20480;-77
2023/05/06 10:57:13;;;;;;;4.00;3.50;;;;;;;;;;5063369;28;20534;-77
2023/05/06 10:59:44;;;;;;;6.83;3.87;;;;;;;;;;5057254;28;20448;-77
2023/05/06 11:02:11;;;;;;;4.47;3.40;;;;;;;;;;5072627;28;20494;-77
2023/05/06 11:04:38;;;;;;;5.53;4.80;;;;;;;;;;5058262;28;20492;-77
2023/05/06 11:07:10;;;;;;;5.90;4.83;;;;;;;;;;5063348;28;20486;-77
2023/05/06 11:09:51;;;;;;;4.10;3.80;;;;;;;;;;5066535;28;20461;-77
2023/05/06 11:12:20;;;;;;;5.10;4.07;;;;;;;;;;5064422;28;20484;-80
2023/05/06 11:14:46;;;;;;;5.40;4.30;;;;;;;;;;5066774;28;20481;-78
2023/05/06 11:17:28;;;;;;;4.50;3.80;;;;;;;;;;5066860;28;20518;-78
2023/05/06 11:20:17;;;;;;;5.23;4.33;;;;;;;;;;5065242;28;20461;-79
2023/05/06 11:22:45;;;;;;;4.20;3.70;;;;;;;;;;5072629;28;20457;-78
2023/05/06 11:25:12;;;;;;;4.50;4.10;;;;;;;;;;5067619;28;20481;-78
2023/05/06 11:27:38;;;;;;;4.13;3.43;;;;;;;;;;5064725;28;20444;-79
2023/05/06 11:30:05;;;;;;;3.70;3.20;;;;;;;;;;5063471;28;20507;-76
2023/05/06 11:32:32;;;;;;;5.13;4.23;;;;;;;;;;5072584;28;20467;-77
2023/05/06 11:34:59;;;;;;;5.40;4.27;;;;;;;;;;5071413;28;20503;-79
2023/05/06 11:37:26;;;;;;;4.47;3.37;;;;;;;;;;5066121;28;20541;-81
2023/05/06 11:39:54;;;;;;;5.20;4.37;;;;;;;;;;5064117;28;20486;-78
2023/05/06 11:42:24;;;;;;;4.37;3.63;;;;;;;;;;5066482;28;20510;-80
2023/05/06 11:44:53;;;;;;;4.37;3.53;;;;;;;;;;5065246;28;20452;-79
2023/05/06 11:47:20;;;;;;;3.50;3.20;;;;;;;;;;5067047;28;20504;-80
2023/05/06 11:49:50;;;;;;;4.23;3.53;;;;;;;;;;5063740;28;20456;-79
2023/05/06 11:52:18;;;;;;;4.87;3.63;;;;;;;;;;5065447;28;20472;-79
2023/05/06 11:54:45;;;;;;;5.47;4.20;;;;;;;;;;5064117;28;20469;-80
2023/05/06 11:57:13;;;;;;;4.70;3.40;;;;;;;;;;5063512;28;20515;-80
2023/05/06 11:59:40;;;;;;;6.00;3.20;;;;;;;;;;5064020;28;20484;-79
2023/05/06 12:02:08;;;;;;;5.50;3.40;;;;;;;;;;5062167;28;20480;-79
2023/05/06 12:04:38;;;;;;;5.37;3.93;;;;;;;;;;5069604;28;20453;-79
2023/05/06 12:07:05;;;;;;;4.13;3.63;;;;;;;;;;5065831;28;20523;-79
2023/05/06 12:09:33;;;;;;;4.40;3.50;;;;;;;;;;5072856;28;20730;-79
2023/05/06 12:11:59;;;;;;;4.87;3.03;;;;;;;;;;5068753;28;20914;-80
2023/05/06 12:14:27;;;;;;;4.07;2.93;;;;;;;;;;5065246;28;20544;-79
2023/05/06 12:16:54;;;;;;;4.70;2.80;;;;;;;;;;5064882;28;20507;-80
2023/05/06 12:19:21;;;;;;;4.53;3.40;;;;;;;;;;5064702;28;20995;-80
2023/05/06 12:21:47;;;;;;;6.20;3.80;;;;;;;;;;5063461;28;20481;-80
2023/05/06 12:24:14;;;;;;;3.60;3.17;;;;;;;;;;5064523;28;20440;-79
2023/05/06 12:26:47;;;;;;;4.50;3.40;;;;;;;;;;5073108;28;20483;-79
2023/05/06 12:29:16;;;;;;;5.33;3.40;;;;;;;;;;5067435;28;20900;-80
2023/05/06 12:31:45;;;;;;;3.80;3.23;;;;;;;;;;5076992;28;20595;-80
2023/05/06 12:34:12;;;;;;;5.47;4.10;;;;;;;;;;5066768;28;20489;-80
2023/05/06 12:36:42;;;;;;;6.87;3.53;;;;;;;;;;5066152;28;20496;-79
2023/05/06 12:39:10;;;;;;;3.67;2.80;;;;;;;;;;5064817;28;20468;-80
2023/05/06 12:41:37;;;;;;;3.50;3.00;;;;;;;;;;5062735;28;20472;-80
2023/05/06 12:44:24;;;;;;;4.37;3.00;;;;;;;;;;5065417;28;20464;-80
2023/05/06 12:46:52;;;;;;;3.53;2.77;;;;;;;;;;5065016;28;20547;-80
2023/05/06 12:49:19;;;;;;;4.77;3.70;;;;;;;;;;5054712;28;20485;-78
2023/05/06 12:51:45;;;;;;;3.47;3.17;;;;;;;;;;5070388;28;21221;-80
2023/05/06 12:54:27;;;;;;;4.87;3.17;;;;;;;;;;5065336;28;20464;-80
2023/05/06 12:56:53;;;;;;;3.97;3.57;;;;;;;;;;5056192;28;20481;-80
2023/05/06 12:59:20;;;;;;;4.00;2.83;;;;;;;;;;5063245;28;20456;-80
2023/05/06 13:01:46;;;;;;;3.00;2.70;;;;;;;;;;5062230;28;20504;-80
2023/05/06 13:04:14;;;;;;;3.03;2.50;;;;;;;;;;5064271;28;20457;-80
2023/05/06 13:06:40;;;;;;;6.50;2.63;;;;;;;;;;5065117;28;20503;-80
2023/05/06 13:09:08;;;;;;;3.87;2.87;;;;;;;;;;5062758;28;20485;-80
2023/05/06 13:11:34;;;;;;;3.60;2.70;;;;;;;;;;5069041;28;20531;-80
2023/05/06 13:14:01;;;;;;;3.67;2.70;;;;;;;;;;5070110;28;20481;-80
2023/05/06 13:16:28;;;;;;;3.30;2.60;;;;;;;;;;5065434;28;20511;-80
2023/05/06 13:18:54;;;;;;;5.27;2.77;;;;;;;;;;5069763;28;20829;-80
2023/05/06 13:21:22;;;;;;;4.03;3.10;;;;;;;;;;5062521;28;20480;-80
2023/05/06 13:23:49;;;;;;;5.73;3.70;;;;;;;;;;5062396;28;20461;-81
2023/05/06 13:26:16;;;;;;;3.20;2.90;;;;;;;;;;5067147;28;20941;-80
2023/05/06 13:28:43;;;;;;;4.77;3.23;;;;;;;;;;5062265;28;21032;-80
2023/05/06 13:31:09;;;;;;;3.50;3.10;;;;;;;;;;5064244;28;20480;-80
2023/05/06 13:33:35;;;;;;;6.83;3.77;;;;;;;;;;5071877;28;20517;-80
2023/05/06 13:36:02;;;;;;;3.80;3.23;;;;;;;;;;5067420;28;20507;-80
2023/05/06 13:38:30;;;;;;;5.60;3.20;;;;;;;;;;5062628;28;20475;-80
2023/05/06 13:40:56;;;;;;;4.93;3.50;;;;;;;;;;5061931;28;20481;-80
2023/05/06 13:43:23;;;;;;;4.77;3.53;;;;;;;;;;5063388;28;20491;-80
2023/05/06 13:45:49;;;;;;;5.63;3.70;;;;;;;;;;5070903;28;20533;-80
2023/05/06 13:48:16;;;;;;;6.17;2.90;;;;;;;;;;5063182;28;20515;-81
2023/05/06 13:50:43;;;;;;;5.80;3.80;;;;;;;;;;5068746;28;20487;-79
2023/05/06 13:53:10;;;;;;;3.73;3.30;;;;;;;;;;5062036;28;20488;-81
2023/05/06 13:55:38;;;;;;;4.00;3.37;;;;;;;;;;5063217;28;20487;-78
2023/05/06 13:58:05;;;;;;;4.20;2.90;;;;;;;;;;5061964;28;20453;-80
2023/05/06 14:00:32;;;;;;;4.40;3.23;;;;;;;;;;5060771;28;20492;-80
2023/05/06 14:02:58;;;;;;;4.27;3.37;;;;;;;;;;5074065;28;20447;-80
2023/05/06 14:05:25;;;;;;;4.00;2.97;;;;;;;;;;5065294;28;20468;-80
2023/05/06 14:07:51;;;;;;;4.67;3.80;;;;;;;;;;5066967;28;20489;-80
2023/05/06 14:10:20;;;;;;;3.83;2.97;;;;;;;;;;5069325;28;20468;-80
2023/05/06 14:12:47;;;;;;;3.60;2.67;;;;;;;;;;5071128;28;20488;-81
2023/05/06 14:15:15;;;;;;;6.57;3.03;;;;;;;;;;5066886;28;20488;-80
2023/05/06 14:17:42;;;;;;;7.40;4.90;;;;;;;;;;5061581;28;20499;-80
2023/05/06 14:20:08;;;;;;;4.50;4.00;;;;;;;;;;5061836;28;20465;-80
2023/05/06 14:22:36;;;;;;;5.37;3.80;;;;;;;;;;5061173;28;20463;-80
2023/05/06 14:25:03;;;;;;;5.10;4.03;;;;;;;;;;5060823;28;20506;-79
2023/05/06 14:27:29;;;;;;;4.10;3.70;;;;;;;;;;5066731;28;20526;-80